sensor_id;sensor_type;location;lat;lon;timestamp;temperature;humidity
27128;DHT22;14660;49.008;8.390;2023-04-01T00:01:51;11.10;99.90
27128;DHT22;14660;49.008;8.390;2023-04-01T00:04:18;11.20;99.90
27128;DHT22;14660;49.008;8.390;2023-04-01T00:06:45;11.20;99.90
27128;DHT22;14660;49.008;8.390;2023-04-01T00:09:14;11.20;99.90
27128;DHT22;14660;49.008;8.390;2023-04-01T00:11:41;11.20;99.90
27128;DHT22;14660;49.008;8.390;2023-04-01T00:14:09;11.20;99.90
27128;DHT22;14660;49.008;8.390;2023-04-01T00:16:36;11.20;99.90
27128;DHT22;14660;49.008;8.390;2023-04-01T00:19:03;11.20;99.90
27128;DHT22;14660;49.008;8.390;2023-04-01T00:21:29;11.20;99.90
27128;DHT22;14660;49.008;8.390;2023-04-01T00:23:57;11.10;99.90
27128;DHT22;14660;49.008;8.390;2023-04-01T00:26:26;11.10;99.90
27128;DHT22;14660;49.008;8.390;2023-04-01T00:28:53;11.10;99.90
27128;DHT22;14660;49.008;8.390;2023-04-01T00:31:20;11.10;99.90
27128;DHT22;14660;49.008;8.390;2023-04-01T00:33:47;11.30;99.90
27128;DHT22;14660;49.008;8.390;2023-04-01T00:36:19;11.20;99.90
27128;DHT22;14660;49.008;8.390;2023-04-01T00:38:49;11.20;99.90
27128;DHT22;14660;49.008;8.390;2023-04-01T00:41:16;11.30;99.90
27128;DHT22;14660;49.008;8.390;2023-04-01T00:43:46;11.20;99.90
27128;DHT22;14660;49.008;8.390;2023-04-01T00:46:14;11.20;99.90
27128;DHT22;14660;49.008;8.390;2023-04-01T00:48:53;11.20;99.90
27128;DHT22;14660;49.008;8.390;2023-04-01T00:51:27;11.30;99.90
27128;DHT22;14660;49.008;8.390;2023-04-01T00:53:57;11.20;99.90
27128;DHT22;14660;49.008;8.390;2023-04-01T00:56:35;11.20;99.90
27128;DHT22;14660;49.008;8.390;2023-04-01T00:59:24;11.20;99.90
27128;DHT22;14660;49.008;8.390;2023-04-01T01:01:52;11.20;99.90
27128;DHT22;14660;49.008;8.390;2023-04-01T01:04:36;11.20;99.90
27128;DHT22;14660;49.008;8.390;2023-04-01T01:10:29;11.20;99.90
27128;DHT22;14660;49.008;8.390;2023-04-01T01:13:22;11.20;99.90
27128;DHT22;14660;49.008;8.390;2023-04-01T01:16:29;11.20;99.90
27128;DHT22;14660;49.008;8.390;2023-04-01T01:27:47;11.30;99.90
27128;DHT22;14660;49.008;8.390;2023-04-01T01:30:51;11.20;99.90
27128;DHT22;14660;49.008;8.390;2023-04-01T01:36:26;11.20;99.90
27128;DHT22;14660;49.008;8.390;2023-04-01T01:38:57;11.20;99.90
27128;DHT22;14660;49.008;8.390;2023-04-01T01:41:26;11.20;99.90
27128;DHT22;14660;49.008;8.390;2023-04-01T01:43:54;11.20;99.90
27128;DHT22;14660;49.008;8.390;2023-04-01T01:46:25;11.20;99.90
27128;DHT22;14660;49.008;8.390;2023-04-01T01:48:53;11.20;99.90
27128;DHT22;14660;49.008;8.390;2023-04-01T01:51:23;11.10;99.90
27128;DHT22;14660;49.008;8.390;2023-04-01T01:53:51;11.10;99.90
27128;DHT22;14660;49.008;8.390;2023-04-01T01:56:19;11.10;99.90
27128;DHT22;14660;49.008;8.390;2023-04-01T01:58:52;11.20;99.90
27128;DHT22;14660;49.008;8.390;2023-04-01T02:01:24;11.20;99.90
27128;DHT22;14660;49.008;8.390;2023-04-01T02:03:55;11.10;99.90
27128;DHT22;14660;49.008;8.390;2023-04-01T02:06:26;11.10;99.90
27128;DHT22;14660;49.008;8.390;2023-04-01T02:09:02;11.10;99.90
27128;DHT22;14660;49.008;8.390;2023-04-01T02:11:51;11.00;99.90
27128;DHT22;14660;49.008;8.390;2023-04-01T02:17:27;10.80;99.90
27128;DHT22;14660;49.008;8.390;2023-04-01T02:23:00;10.80;99.90
27128;DHT22;14660;49.008;8.390;2023-04-01T02:25:33;10.80;99.90
27128;DHT22;14660;49.008;8.390;2023-04-01T02:28:02;10.80;99.90
27128;DHT22;14660;49.008;8.390;2023-04-01T02:30:31;10.80;99.90
27128;DHT22;14660;49.008;8.390;2023-04-01T02:33:00;10.80;99.90
27128;DHT22;14660;49.008;8.390;2023-04-01T02:35:27;10.70;99.90
27128;DHT22;14660;49.008;8.390;2023-04-01T02:37:55;10.70;99.90
27128;DHT22;14660;49.008;8.390;2023-04-01T02:40:22;10.80;99.90
27128;DHT22;14660;49.008;8.390;2023-04-01T02:42:49;10.80;99.90
27128;DHT22;14660;49.008;8.390;2023-04-01T02:45:16;10.80;99.90
27128;DHT22;14660;49.008;8.390;2023-04-01T02:47:43;10.80;99.90
27128;DHT22;14660;49.008;8.390;2023-04-01T02:50:10;10.80;99.90
27128;DHT22;14660;49.008;8.390;2023-04-01T02:52:37;10.70;99.90
27128;DHT22;14660;49.008;8.390;2023-04-01T02:55:05;10.60;99.90
27128;DHT22;14660;49.008;8.390;2023-04-01T02:57:32;10.70;99.90
27128;DHT22;14660;49.008;8.390;2023-04-01T02:59:59;10.70;99.90
27128;DHT22;14660;49.008;8.390;2023-04-01T03:02:26;10.70;99.90
27128;DHT22;14660;49.008;8.390;2023-04-01T03:04:54;10.70;99.90
27128;DHT22;14660;49.008;8.390;2023-04-01T03:07:21;10.80;99.90
27128;DHT22;14660;49.008;8.390;2023-04-01T03:09:48;10.80;99.90
27128;DHT22;14660;49.008;8.390;2023-04-01T03:12:13;10.80;99.90
27128;DHT22;14660;49.008;8.390;2023-04-01T03:14:40;10.70;99.90
27128;DHT22;14660;49.008;8.390;2023-04-01T03:17:08;10.70;99.90
27128;DHT22;14660;49.008;8.390;2023-04-01T03:19:35;10.70;99.90
27128;DHT22;14660;49.008;8.390;2023-04-01T03:22:01;10.70;99.90
27128;DHT22;14660;49.008;8.390;2023-04-01T03:24:29;10.70;99.90
27128;DHT22;14660;49.008;8.390;2023-04-01T03:26:56;10.80;99.90
27128;DHT22;14660;49.008;8.390;2023-04-01T03:29:24;10.70;99.90
27128;DHT22;14660;49.008;8.390;2023-04-01T03:31:51;10.80;99.90
27128;DHT22;14660;49.008;8.390;2023-04-01T03:34:17;10.80;99.90
27128;DHT22;14660;49.008;8.390;2023-04-01T03:36:44;10.80;99.90
27128;DHT22;14660;49.008;8.390;2023-04-01T03:39:11;10.80;99.90
27128;DHT22;14660;49.008;8.390;2023-04-01T03:41:38;10.80;99.90
27128;DHT22;14660;49.008;8.390;2023-04-01T03:44:05;10.90;99.90
27128;DHT22;14660;49.008;8.390;2023-04-01T03:46:32;10.80;99.90
27128;DHT22;14660;49.008;8.390;2023-04-01T03:48:59;10.80;99.90
27128;DHT22;14660;49.008;8.390;2023-04-01T03:51:27;10.90;99.90
27128;DHT22;14660;49.008;8.390;2023-04-01T03:53:55;10.80;99.90
27128;DHT22;14660;49.008;8.390;2023-04-01T03:56:24;10.80;99.90
27128;DHT22;14660;49.008;8.390;2023-04-01T03:58:51;10.80;99.90
27128;DHT22;14660;49.008;8.390;2023-04-01T04:01:20;10.80;99.90
27128;DHT22;14660;49.008;8.390;2023-04-01T04:03:48;10.80;99.90
27128;DHT22;14660;49.008;8.390;2023-04-01T04:06:18;10.80;99.90
27128;DHT22;14660;49.008;8.390;2023-04-01T04:08:46;10.80;99.90
27128;DHT22;14660;49.008;8.390;2023-04-01T04:11:13;10.80;99.90
27128;DHT22;14660;49.008;8.390;2023-04-01T04:13:41;10.80;99.90
27128;DHT22;14660;49.008;8.390;2023-04-01T04:16:09;10.80;99.90
27128;DHT22;14660;49.008;8.390;2023-04-01T04:18:38;10.90;99.90
27128;DHT22;14660;49.008;8.390;2023-04-01T04:21:05;10.90;99.90
27128;DHT22;14660;49.008;8.390;2023-04-01T04:23:32;11.00;99.90
27128;DHT22;14660;49.008;8.390;2023-04-01T04:26:05;10.90;99.90
27128;DHT22;14660;49.008;8.390;2023-04-01T04:28:32;10.90;99.90
27128;DHT22;14660;49.008;8.390;2023-04-01T04:31:00;10.90;99.90
27128;DHT22;14660;49.008;8.390;2023-04-01T04:33:27;10.90;99.90
27128;DHT22;14660;49.008;8.390;2023-04-01T04:35:57;10.90;99.90
27128;DHT22;14660;49.008;8.390;2023-04-01T04:38:25;10.90;99.90
27128;DHT22;14660;49.008;8.390;2023-04-01T04:40:53;10.90;99.90
27128;DHT22;14660;49.008;8.390;2023-04-01T04:43:20;10.90;99.90
27128;DHT22;14660;49.008;8.390;2023-04-01T04:45:47;10.90;99.90
27128;DHT22;14660;49.008;8.390;2023-04-01T04:48:17;10.90;99.90
27128;DHT22;14660;49.008;8.390;2023-04-01T04:50:47;11.00;99.90
27128;DHT22;14660;49.008;8.390;2023-04-01T04:53:14;11.00;99.90
27128;DHT22;14660;49.008;8.390;2023-04-01T04:55:46;10.90;99.90
27128;DHT22;14660;49.008;8.390;2023-04-01T04:58:14;11.00;99.90
27128;DHT22;14660;49.008;8.390;2023-04-01T05:00:42;10.90;99.90
27128;DHT22;14660;49.008;8.390;2023-04-01T05:03:09;10.90;99.90
27128;DHT22;14660;49.008;8.390;2023-04-01T05:05:37;11.00;99.90
27128;DHT22;14660;49.008;8.390;2023-04-01T05:08:04;10.90;99.90
27128;DHT22;14660;49.008;8.390;2023-04-01T05:10:32;10.90;99.90
27128;DHT22;14660;49.008;8.390;2023-04-01T05:12:59;10.90;99.90
27128;DHT22;14660;49.008;8.390;2023-04-01T05:15:26;11.00;99.90
27128;DHT22;14660;49.008;8.390;2023-04-01T05:17:53;11.00;99.90
27128;DHT22;14660;49.008;8.390;2023-04-01T05:20:19;10.90;99.90
27128;DHT22;14660;49.008;8.390;2023-04-01T05:22:46;10.90;99.90
27128;DHT22;14660;49.008;8.390;2023-04-01T05:25:13;10.90;99.90
27128;DHT22;14660;49.008;8.390;2023-04-01T05:27:40;10.90;99.90
27128;DHT22;14660;49.008;8.390;2023-04-01T05:30:07;10.90;99.90
27128;DHT22;14660;49.008;8.390;2023-04-01T05:32:34;10.90;99.90
27128;DHT22;14660;49.008;8.390;2023-04-01T05:35:01;10.90;99.90
27128;DHT22;14660;49.008;8.390;2023-04-01T05:37:29;10.90;99.90
27128;DHT22;14660;49.008;8.390;2023-04-01T05:39:56;10.90;99.90
27128;DHT22;14660;49.008;8.390;2023-04-01T05:42:25;10.90;99.90
27128;DHT22;14660;49.008;8.390;2023-04-01T05:44:53;10.80;99.90
27128;DHT22;14660;49.008;8.390;2023-04-01T05:47:20;10.80;99.90
27128;DHT22;14660;49.008;8.390;2023-04-01T05:49:47;10.90;99.90
27128;DHT22;14660;49.008;8.390;2023-04-01T05:52:14;10.80;99.90
27128;DHT22;14660;49.008;8.390;2023-04-01T05:54:41;10.70;99.90
27128;DHT22;14660;49.008;8.390;2023-04-01T05:57:07;10.70;99.90
27128;DHT22;14660;49.008;8.390;2023-04-01T05:59:34;10.60;99.90
27128;DHT22;14660;49.008;8.390;2023-04-01T06:02:02;10.60;99.90
27128;DHT22;14660;49.008;8.390;2023-04-01T06:04:38;10.60;99.90
27128;DHT22;14660;49.008;8.390;2023-04-01T06:07:17;10.60;99.90
27128;DHT22;14660;49.008;8.390;2023-04-01T06:09:44;10.60;99.90
27128;DHT22;14660;49.008;8.390;2023-04-01T06:12:37;10.50;99.90
27128;DHT22;14660;49.008;8.390;2023-04-01T06:24:39;10.60;99.90
27128;DHT22;14660;49.008;8.390;2023-04-01T06:30:43;10.70;99.90
27128;DHT22;14660;49.008;8.390;2023-04-01T06:51:32;10.70;99.90
27128;DHT22;14660;49.008;8.390;2023-04-01T06:54:21;10.80;99.90
27128;DHT22;14660;49.008;8.390;2023-04-01T06:56:53;10.90;99.90
27128;DHT22;14660;49.008;8.390;2023-04-01T06:59:28;10.80;99.90
27128;DHT22;14660;49.008;8.390;2023-04-01T07:02:01;10.80;99.90
27128;DHT22;14660;49.008;8.390;2023-04-01T07:04:32;10.90;99.90
27128;DHT22;14660;49.008;8.390;2023-04-01T07:09:53;10.90;99.90
27128;DHT22;14660;49.008;8.390;2023-04-01T07:15:40;11.00;99.90
27128;DHT22;14660;49.008;8.390;2023-04-01T07:18:32;10.90;99.90
27128;DHT22;14660;49.008;8.390;2023-04-01T07:21:01;10.90;99.90
27128;DHT22;14660;49.008;8.390;2023-04-01T07:23:42;10.80;99.90
27128;DHT22;14660;49.008;8.390;2023-04-01T07:26:28;10.90;99.90
27128;DHT22;14660;49.008;8.390;2023-04-01T07:28:56;10.90;99.90
27128;DHT22;14660;49.008;8.390;2023-04-01T07:34:49;11.00;99.90
27128;DHT22;14660;49.008;8.390;2023-04-01T07:52:35;10.70;99.90
27128;DHT22;14660;49.008;8.390;2023-04-01T08:01:05;10.70;99.90
27128;DHT22;14660;49.008;8.390;2023-04-01T08:04:07;10.70;99.90
27128;DHT22;14660;49.008;8.390;2023-04-01T08:10:16;10.80;99.90
27128;DHT22;14660;49.008;8.390;2023-04-01T08:16:12;10.70;99.90
27128;DHT22;14660;49.008;8.390;2023-04-01T08:21:49;10.80;99.90
27128;DHT22;14660;49.008;8.390;2023-04-01T08:24:38;10.80;99.90
27128;DHT22;14660;49.008;8.390;2023-04-01T08:27:17;10.90;99.90
27128;DHT22;14660;49.008;8.390;2023-04-01T08:36:28;11.10;99.90
27128;DHT22;14660;49.008;8.390;2023-04-01T08:39:22;11.00;99.90
27128;DHT22;14660;49.008;8.390;2023-04-01T09:00:19;11.50;99.90
27128;DHT22;14660;49.008;8.390;2023-04-01T09:15:14;11.40;99.90
27128;DHT22;14660;49.008;8.390;2023-04-01T09:24:12;11.50;99.90
27128;DHT22;14660;49.008;8.390;2023-04-01T09:27:34;11.40;99.90
27128;DHT22;14660;49.008;8.390;2023-04-01T10:31:06;11.50;99.90
27128;DHT22;14660;49.008;8.390;2023-04-01T10:54:40;11.60;99.90
27128;DHT22;14660;49.008;8.390;2023-04-01T10:57:35;11.60;99.90
27128;DHT22;14660;49.008;8.390;2023-04-01T11:43:06;11.80;99.90
27128;DHT22;14660;49.008;8.390;2023-04-01T11:46:16;11.90;99.90
27128;DHT22;14660;49.008;8.390;2023-04-01T12:04:41;11.90;99.90
27128;DHT22;14660;49.008;8.390;2023-04-01T12:13:41;11.80;99.90
27128;DHT22;14660;49.008;8.390;2023-04-01T12:31:33;11.50;99.90
27128;DHT22;14660;49.008;8.390;2023-04-01T12:45:51;11.40;99.90
27128;DHT22;14660;49.008;8.390;2023-04-01T12:48:57;11.40;99.90
27128;DHT22;14660;49.008;8.390;2023-04-01T13:10:26;11.60;99.90
27128;DHT22;14660;49.008;8.390;2023-04-01T13:18:55;11.50;99.90
27128;DHT22;14660;49.008;8.390;2023-04-01T13:27:55;11.70;99.90
27128;DHT22;14660;49.008;8.390;2023-04-01T13:30:26;11.70;99.90
27128;DHT22;14660;49.008;8.390;2023-04-01T13:36:33;11.70;99.90
27128;DHT22;14660;49.008;8.390;2023-04-01T13:45:31;11.50;99.90
27128;DHT22;14660;49.008;8.390;2023-04-01T13:54:07;11.50;99.90
27128;DHT22;14660;49.008;8.390;2023-04-01T14:09:07;11.70;99.90
27128;DHT22;14660;49.008;8.390;2023-04-01T14:12:00;11.80;99.90
27128;DHT22;14660;49.008;8.390;2023-04-01T14:37:00;11.40;99.90
27128;DHT22;14660;49.008;8.390;2023-04-01T14:48:38;11.60;99.90
27128;DHT22;14660;49.008;8.390;2023-04-01T14:51:18;11.50;99.90
27128;DHT22;14660;49.008;8.390;2023-04-01T15:12:46;11.60;99.90
27128;DHT22;14660;49.008;8.390;2023-04-01T15:18:34;11.60;99.90
27128;DHT22;14660;49.008;8.390;2023-04-01T15:47:41;11.70;99.90
27128;DHT22;14660;49.008;8.390;2023-04-01T15:50:50;11.80;99.90
27128;DHT22;14660;49.008;8.390;2023-04-01T15:53:48;11.70;99.90
27128;DHT22;14660;49.008;8.390;2023-04-01T15:56:36;11.60;99.90
27128;DHT22;14660;49.008;8.390;2023-04-01T16:20:44;11.60;99.90
27128;DHT22;14660;49.008;8.390;2023-04-01T16:44:29;11.70;99.90
27128;DHT22;14660;49.008;8.390;2023-04-01T16:47:15;11.70;99.90
27128;DHT22;14660;49.008;8.390;2023-04-01T16:56:27;11.60;99.90
27128;DHT22;14660;49.008;8.390;2023-04-01T17:02:17;11.50;99.90
27128;DHT22;14660;49.008;8.390;2023-04-01T17:05:12;11.50;99.90
27128;DHT22;14660;49.008;8.390;2023-04-01T17:17:18;11.30;99.90
27128;DHT22;14660;49.008;8.390;2023-04-01T17:59:37;11.30;99.90
27128;DHT22;14660;49.008;8.390;2023-04-01T18:17:58;11.20;99.90
27128;DHT22;14660;49.008;8.390;2023-04-01T18:23:50;11.10;99.90
27128;DHT22;14660;49.008;8.390;2023-04-01T18:26:28;11.00;99.90
27128;DHT22;14660;49.008;8.390;2023-04-01T18:52:41;10.70;99.90
27128;DHT22;14660;49.008;8.390;2023-04-01T18:55:33;10.60;99.90
27128;DHT22;14660;49.008;8.390;2023-04-01T19:07:49;10.60;99.90
27128;DHT22;14660;49.008;8.390;2023-04-01T19:11:18;10.60;99.90
27128;DHT22;14660;49.008;8.390;2023-04-01T19:27:49;10.70;99.90
27128;DHT22;14660;49.008;8.390;2023-04-01T19:33:50;10.60;99.90
27128;DHT22;14660;49.008;8.390;2023-04-01T19:39:42;10.70;99.90
27128;DHT22;14660;49.008;8.390;2023-04-01T19:42:36;10.70;99.90
27128;DHT22;14660;49.008;8.390;2023-04-01T19:49:14;10.80;99.90
27128;DHT22;14660;49.008;8.390;2023-04-01T19:54:48;10.60;99.90
27128;DHT22;14660;49.008;8.390;2023-04-01T19:57:41;10.70;99.90
27128;DHT22;14660;49.008;8.390;2023-04-01T20:09:31;10.80;99.90
27128;DHT22;14660;49.008;8.390;2023-04-01T20:21:42;11.00;99.90
27128;DHT22;14660;49.008;8.390;2023-04-01T20:51:26;11.10;99.90
27128;DHT22;14660;49.008;8.390;2023-04-01T21:27:44;11.00;99.90
27128;DHT22;14660;49.008;8.390;2023-04-01T21:51:29;10.90;99.90
27128;DHT22;14660;49.008;8.390;2023-04-01T22:12:35;10.80;99.90
27128;DHT22;14660;49.008;8.390;2023-04-01T22:18:33;10.80;99.90
27128;DHT22;14660;49.008;8.390;2023-04-01T22:30:36;10.80;99.90
27128;DHT22;14660;49.008;8.390;2023-04-01T22:36:24;10.70;99.90
27128;DHT22;14660;49.008;8.390;2023-04-01T23:03:32;10.80;99.90
27128;DHT22;14660;49.008;8.390;2023-04-01T23:06:03;10.80;99.90
27128;DHT22;14660;49.008;8.390;2023-04-01T23:14:56;10.90;99.90
27128;DHT22;14660;49.008;8.390;2023-04-01T23:29:25;10.80;99.90
27128;DHT22;14660;49.008;8.390;2023-04-01T23:31:59;10.80;99.90
27128;DHT22;14660;49.008;8.390;2023-04-01T23:34:32;10.80;99.90
27128;DHT22;14660;49.008;8.390;2023-04-01T23:37:08;10.70;99.90
27128;DHT22;14660;49.008;8.390;2023-04-01T23:39:39;10.70;99.90
27128;DHT22;14660;49.008;8.390;2023-04-01T23:45:16;10.70;99.90
27128;DHT22;14660;49.008;8.390;2023-04-01T23:47:45;10.80;99.90
27128;DHT22;14660;49.008;8.390;2023-04-01T23:50:17;10.70;99.90
27128;DHT22;14660;49.008;8.390;2023-04-01T23:52:53;10.70;99.90
27128;DHT22;14660;49.008;8.390;2023-04-01T23:55:27;10.70;99.90
